< < Back
Terminal Aerodrome Forecast


Current Version              Previous Versions:   1  2  3  4  5  6  7  8  9  

Terminal Aerodrome Forecast

525
FTUS42 KILM 011300 AAA
TAFILM
TAF AMD
KILM 011346Z 0114/0212 12006KT 3SM SHRA SCT025 BKN060
      TEMPO 0114/0116 1SM +SHRA BKN016
     FM011700 12008KT 6SM -SHRA BKN030 BKN040
     FM012200 15007KT P6SM VCSH BKN035=

Latest METAR

749
SAUS70 KWBC 011400 RRL
MTRILM
METAR KILM 011353Z 06005KT 1 1/4SM VCTS +RA BR FEW016 BKN044 OVC060
24/23 A3006 RMK AO2 LTG DSNT S SLP180 P0013 T02390228


USA.gov is the U.S. government's official web portal to all federal, state and local government web resources and services.